sensor_id;sensor_type;location;lat;lon;timestamp;P1;durP1;ratioP1;P2;durP2;ratioP2
6679;SDS011;3376;42.664;23.346;2024-03-22T00:03:17;11.73;;;8.13;;
6679;SDS011;3376;42.664;23.346;2024-03-22T00:06:43;13.57;;;8.53;;
6679;SDS011;3376;42.664;23.346;2024-03-22T00:10:09;9.57;;;7.83;;
6679;SDS011;3376;42.664;23.346;2024-03-22T00:13:36;6.83;;;6.13;;
6679;SDS011;3376;42.664;23.346;2024-03-22T00:17:02;10.53;;;7.70;;
6679;SDS011;3376;42.664;23.346;2024-03-22T00:20:28;11.00;;;9.30;;
6679;SDS011;3376;42.664;23.346;2024-03-22T00:23:53;13.77;;;9.50;;
6679;SDS011;3376;42.664;23.346;2024-03-22T00:27:19;11.47;;;8.43;;
6679;SDS011;3376;42.664;23.346;2024-03-22T00:30:44;11.00;;;9.13;;
6679;SDS011;3376;42.664;23.346;2024-03-22T00:34:11;12.30;;;7.37;;
6679;SDS011;3376;42.664;23.346;2024-03-22T00:37:36;7.90;;;7.10;;
6679;SDS011;3376;42.664;23.346;2024-03-22T00:41:02;7.63;;;6.87;;
6679;SDS011;3376;42.664;23.346;2024-03-22T00:44:27;10.83;;;7.53;;
6679;SDS011;3376;42.664;23.346;2024-03-22T00:47:52;11.23;;;6.80;;
6679;SDS011;3376;42.664;23.346;2024-03-22T00:51:23;14.53;;;7.73;;
6679;SDS011;3376;42.664;23.346;2024-03-22T00:54:49;11.17;;;7.40;;
6679;SDS011;3376;42.664;23.346;2024-03-22T00:58:17;9.07;;;8.10;;
6679;SDS011;3376;42.664;23.346;2024-03-22T01:01:43;10.90;;;7.57;;
6679;SDS011;3376;42.664;23.346;2024-03-22T01:05:09;8.50;;;7.80;;
6679;SDS011;3376;42.664;23.346;2024-03-22T01:08:36;8.60;;;7.80;;
6679;SDS011;3376;42.664;23.346;2024-03-22T01:12:02;10.43;;;7.40;;
6679;SDS011;3376;42.664;23.346;2024-03-22T01:15:28;10.43;;;7.17;;
6679;SDS011;3376;42.664;23.346;2024-03-22T01:18:52;10.17;;;8.20;;
6679;SDS011;3376;42.664;23.346;2024-03-22T01:22:20;9.93;;;8.63;;
6679;SDS011;3376;42.664;23.346;2024-03-22T01:25:47;16.40;;;8.77;;
6679;SDS011;3376;42.664;23.346;2024-03-22T01:29:13;19.57;;;10.30;;
6679;SDS011;3376;42.664;23.346;2024-03-22T01:32:41;12.13;;;9.23;;
6679;SDS011;3376;42.664;23.346;2024-03-22T01:36:10;13.30;;;7.77;;
6679;SDS011;3376;42.664;23.346;2024-03-22T01:39:35;15.37;;;9.53;;
6679;SDS011;3376;42.664;23.346;2024-03-22T01:43:02;17.63;;;10.40;;
6679;SDS011;3376;42.664;23.346;2024-03-22T01:46:27;15.67;;;9.40;;
6679;SDS011;3376;42.664;23.346;2024-03-22T01:49:53;14.00;;;9.17;;
6679;SDS011;3376;42.664;23.346;2024-03-22T01:53:19;9.80;;;7.90;;
6679;SDS011;3376;42.664;23.346;2024-03-22T01:56:45;11.63;;;9.00;;
6679;SDS011;3376;42.664;23.346;2024-03-22T02:00:15;9.10;;;8.37;;
6679;SDS011;3376;42.664;23.346;2024-03-22T02:03:42;11.10;;;8.33;;
6679;SDS011;3376;42.664;23.346;2024-03-22T02:07:08;10.57;;;9.10;;
6679;SDS011;3376;42.664;23.346;2024-03-22T02:10:34;16.63;;;8.93;;
6679;SDS011;3376;42.664;23.346;2024-03-22T02:14:01;14.30;;;8.90;;
6679;SDS011;3376;42.664;23.346;2024-03-22T02:17:29;11.30;;;8.30;;
6679;SDS011;3376;42.664;23.346;2024-03-22T02:20:56;11.43;;;8.83;;
6679;SDS011;3376;42.664;23.346;2024-03-22T02:24:22;15.47;;;9.53;;
6679;SDS011;3376;42.664;23.346;2024-03-22T02:27:48;10.20;;;9.03;;
6679;SDS011;3376;42.664;23.346;2024-03-22T02:31:14;10.53;;;9.23;;
6679;SDS011;3376;42.664;23.346;2024-03-22T02:34:40;12.70;;;8.53;;
6679;SDS011;3376;42.664;23.346;2024-03-22T02:38:04;10.77;;;9.67;;
6679;SDS011;3376;42.664;23.346;2024-03-22T02:41:34;13.23;;;11.73;;
6679;SDS011;3376;42.664;23.346;2024-03-22T02:45:00;15.07;;;11.03;;
6679;SDS011;3376;42.664;23.346;2024-03-22T02:48:25;20.17;;;11.07;;
6679;SDS011;3376;42.664;23.346;2024-03-22T02:51:51;15.93;;;11.03;;
6679;SDS011;3376;42.664;23.346;2024-03-22T02:55:16;14.40;;;10.50;;
6679;SDS011;3376;42.664;23.346;2024-03-22T02:58:43;13.53;;;10.77;;
6679;SDS011;3376;42.664;23.346;2024-03-22T03:02:08;19.40;;;12.37;;
6679;SDS011;3376;42.664;23.346;2024-03-22T03:05:34;15.63;;;10.77;;
6679;SDS011;3376;42.664;23.346;2024-03-22T03:09:01;18.20;;;12.17;;
6679;SDS011;3376;42.664;23.346;2024-03-22T03:12:27;12.33;;;10.73;;
6679;SDS011;3376;42.664;23.346;2024-03-22T03:15:56;15.03;;;11.73;;
6679;SDS011;3376;42.664;23.346;2024-03-22T03:19:21;17.47;;;11.50;;
6679;SDS011;3376;42.664;23.346;2024-03-22T03:22:48;12.37;;;10.77;;
6679;SDS011;3376;42.664;23.346;2024-03-22T03:26:13;16.00;;;11.67;;
6679;SDS011;3376;42.664;23.346;2024-03-22T03:29:38;24.47;;;13.30;;
6679;SDS011;3376;42.664;23.346;2024-03-22T03:33:05;23.77;;;13.40;;
6679;SDS011;3376;42.664;23.346;2024-03-22T03:36:34;15.83;;;12.07;;
6679;SDS011;3376;42.664;23.346;2024-03-22T03:39:58;17.57;;;12.17;;
6679;SDS011;3376;42.664;23.346;2024-03-22T03:43:24;15.73;;;11.87;;
6679;SDS011;3376;42.664;23.346;2024-03-22T03:46:51;17.10;;;13.03;;
6679;SDS011;3376;42.664;23.346;2024-03-22T03:50:19;20.80;;;14.40;;
6679;SDS011;3376;42.664;23.346;2024-03-22T03:53:44;17.23;;;12.97;;
6679;SDS011;3376;42.664;23.346;2024-03-22T03:57:11;16.80;;;11.33;;
6679;SDS011;3376;42.664;23.346;2024-03-22T04:00:37;15.13;;;10.50;;
6679;SDS011;3376;42.664;23.346;2024-03-22T04:04:03;17.13;;;11.40;;
6679;SDS011;3376;42.664;23.346;2024-03-22T04:07:32;19.30;;;12.07;;
6679;SDS011;3376;42.664;23.346;2024-03-22T04:10:57;14.97;;;9.20;;
6679;SDS011;3376;42.664;23.346;2024-03-22T04:14:24;9.40;;;8.47;;
6679;SDS011;3376;42.664;23.346;2024-03-22T04:17:50;18.80;;;9.77;;
6679;SDS011;3376;42.664;23.346;2024-03-22T04:21:18;10.77;;;9.87;;
6679;SDS011;3376;42.664;23.346;2024-03-22T04:24:45;8.97;;;8.07;;
6679;SDS011;3376;42.664;23.346;2024-03-22T04:28:18;10.57;;;7.23;;
6679;SDS011;3376;42.664;23.346;2024-03-22T04:31:43;9.80;;;8.77;;
6679;SDS011;3376;42.664;23.346;2024-03-22T04:35:11;7.60;;;6.90;;
6679;SDS011;3376;42.664;23.346;2024-03-22T04:38:37;11.27;;;9.07;;
6679;SDS011;3376;42.664;23.346;2024-03-22T04:42:04;12.43;;;9.20;;
6679;SDS011;3376;42.664;23.346;2024-03-22T04:45:30;11.20;;;8.87;;
6679;SDS011;3376;42.664;23.346;2024-03-22T04:48:59;10.97;;;9.87;;
6679;SDS011;3376;42.664;23.346;2024-03-22T04:52:23;11.67;;;10.47;;
6679;SDS011;3376;42.664;23.346;2024-03-22T04:55:50;19.00;;;12.13;;
6679;SDS011;3376;42.664;23.346;2024-03-22T04:59:18;18.10;;;10.63;;
6679;SDS011;3376;42.664;23.346;2024-03-22T05:02:44;16.17;;;11.30;;
6679;SDS011;3376;42.664;23.346;2024-03-22T05:06:09;19.37;;;10.50;;
6679;SDS011;3376;42.664;23.346;2024-03-22T05:09:35;17.10;;;10.13;;
6679;SDS011;3376;42.664;23.346;2024-03-22T05:13:00;17.10;;;11.43;;
6679;SDS011;3376;42.664;23.346;2024-03-22T05:16:27;14.83;;;8.87;;
6679;SDS011;3376;42.664;23.346;2024-03-22T05:19:54;14.73;;;10.97;;
6679;SDS011;3376;42.664;23.346;2024-03-22T05:23:20;20.90;;;11.27;;
6679;SDS011;3376;42.664;23.346;2024-03-22T05:26:45;17.23;;;10.70;;
6679;SDS011;3376;42.664;23.346;2024-03-22T05:30:13;16.40;;;10.93;;
6679;SDS011;3376;42.664;23.346;2024-03-22T05:33:41;15.07;;;9.27;;
6679;SDS011;3376;42.664;23.346;2024-03-22T05:37:06;22.40;;;10.97;;
6679;SDS011;3376;42.664;23.346;2024-03-22T05:40:31;18.37;;;10.23;;
6679;SDS011;3376;42.664;23.346;2024-03-22T05:43:59;14.43;;;10.40;;
6679;SDS011;3376;42.664;23.346;2024-03-22T05:47:24;13.27;;;9.57;;
6679;SDS011;3376;42.664;23.346;2024-03-22T05:50:52;18.17;;;9.93;;
6679;SDS011;3376;42.664;23.346;2024-03-22T05:54:18;15.03;;;9.07;;
6679;SDS011;3376;42.664;23.346;2024-03-22T05:57:44;9.53;;;8.57;;
6679;SDS011;3376;42.664;23.346;2024-03-22T06:01:10;12.07;;;8.73;;
6679;SDS011;3376;42.664;23.346;2024-03-22T06:04:36;10.87;;;8.83;;
6679;SDS011;3376;42.664;23.346;2024-03-22T06:08:03;15.00;;;8.60;;
6679;SDS011;3376;42.664;23.346;2024-03-22T06:11:29;9.20;;;8.30;;
6679;SDS011;3376;42.664;23.346;2024-03-22T06:14:55;9.37;;;7.43;;
6679;SDS011;3376;42.664;23.346;2024-03-22T06:18:20;13.40;;;7.83;;
6679;SDS011;3376;42.664;23.346;2024-03-22T06:21:45;11.90;;;7.33;;
6679;SDS011;3376;42.664;23.346;2024-03-22T06:25:12;9.57;;;8.57;;
6679;SDS011;3376;42.664;23.346;2024-03-22T06:28:38;10.37;;;8.40;;
6679;SDS011;3376;42.664;23.346;2024-03-22T06:32:06;8.57;;;7.67;;
6679;SDS011;3376;42.664;23.346;2024-03-22T06:35:31;11.87;;;8.73;;
6679;SDS011;3376;42.664;23.346;2024-03-22T06:38:57;14.13;;;8.90;;
6679;SDS011;3376;42.664;23.346;2024-03-22T06:42:25;14.60;;;8.70;;
6679;SDS011;3376;42.664;23.346;2024-03-22T06:45:51;13.53;;;8.73;;
6679;SDS011;3376;42.664;23.346;2024-03-22T06:49:16;12.07;;;8.03;;
6679;SDS011;3376;42.664;23.346;2024-03-22T06:52:44;15.37;;;8.67;;
6679;SDS011;3376;42.664;23.346;2024-03-22T06:56:10;9.60;;;8.20;;
6679;SDS011;3376;42.664;23.346;2024-03-22T06:59:37;13.23;;;8.07;;
6679;SDS011;3376;42.664;23.346;2024-03-22T07:03:03;9.00;;;8.13;;
6679;SDS011;3376;42.664;23.346;2024-03-22T07:06:29;16.07;;;7.20;;
6679;SDS011;3376;42.664;23.346;2024-03-22T07:09:53;17.03;;;8.23;;
6679;SDS011;3376;42.664;23.346;2024-03-22T07:13:20;11.97;;;8.07;;
6679;SDS011;3376;42.664;23.346;2024-03-22T07:16:47;11.90;;;9.57;;
6679;SDS011;3376;42.664;23.346;2024-03-22T07:20:11;10.47;;;9.40;;
6679;SDS011;3376;42.664;23.346;2024-03-22T07:23:37;11.13;;;10.03;;
6679;SDS011;3376;42.664;23.346;2024-03-22T07:27:05;19.60;;;8.90;;
6679;SDS011;3376;42.664;23.346;2024-03-22T07:30:31;7.87;;;7.37;;
6679;SDS011;3376;42.664;23.346;2024-03-22T07:33:59;7.83;;;7.00;;
6679;SDS011;3376;42.664;23.346;2024-03-22T07:37:25;6.77;;;6.37;;
6679;SDS011;3376;42.664;23.346;2024-03-22T07:40:51;8.40;;;7.80;;
6679;SDS011;3376;42.664;23.346;2024-03-22T07:44:16;5.90;;;5.43;;
6679;SDS011;3376;42.664;23.346;2024-03-22T07:47:41;7.30;;;5.37;;
6679;SDS011;3376;42.664;23.346;2024-03-22T07:51:09;4.30;;;3.93;;
6679;SDS011;3376;42.664;23.346;2024-03-22T07:54:34;7.30;;;5.47;;
6679;SDS011;3376;42.664;23.346;2024-03-22T07:58:00;6.40;;;5.10;;
6679;SDS011;3376;42.664;23.346;2024-03-22T08:01:26;5.17;;;4.47;;
6679;SDS011;3376;42.664;23.346;2024-03-22T08:04:52;4.90;;;4.27;;
6679;SDS011;3376;42.664;23.346;2024-03-22T08:08:19;3.60;;;3.40;;
6679;SDS011;3376;42.664;23.346;2024-03-22T08:11:46;4.83;;;4.53;;
6679;SDS011;3376;42.664;23.346;2024-03-22T08:15:10;3.50;;;3.33;;
6679;SDS011;3376;42.664;23.346;2024-03-22T08:18:37;4.13;;;3.77;;
6679;SDS011;3376;42.664;23.346;2024-03-22T08:22:03;5.43;;;4.00;;
6679;SDS011;3376;42.664;23.346;2024-03-22T08:25:32;3.87;;;3.67;;
6679;SDS011;3376;42.664;23.346;2024-03-22T08:29:00;3.80;;;3.60;;
6679;SDS011;3376;42.664;23.346;2024-03-22T08:32:27;4.37;;;4.17;;
6679;SDS011;3376;42.664;23.346;2024-03-22T08:35:53;3.80;;;3.60;;
6679;SDS011;3376;42.664;23.346;2024-03-22T08:39:19;4.40;;;4.00;;
6679;SDS011;3376;42.664;23.346;2024-03-22T08:42:47;4.53;;;4.23;;
6679;SDS011;3376;42.664;23.346;2024-03-22T08:46:11;6.10;;;5.80;;
6679;SDS011;3376;42.664;23.346;2024-03-22T08:49:37;4.27;;;3.67;;
6679;SDS011;3376;42.664;23.346;2024-03-22T08:53:02;7.83;;;3.97;;
6679;SDS011;3376;42.664;23.346;2024-03-22T08:56:29;4.80;;;4.50;;
6679;SDS011;3376;42.664;23.346;2024-03-22T08:59:57;4.60;;;4.20;;
6679;SDS011;3376;42.664;23.346;2024-03-22T09:03:23;3.97;;;3.77;;
6679;SDS011;3376;42.664;23.346;2024-03-22T09:06:49;4.20;;;4.00;;
6679;SDS011;3376;42.664;23.346;2024-03-22T09:10:14;4.67;;;3.90;;
6679;SDS011;3376;42.664;23.346;2024-03-22T09:13:40;3.73;;;3.53;;
6679;SDS011;3376;42.664;23.346;2024-03-22T09:17:07;4.77;;;4.37;;
6679;SDS011;3376;42.664;23.346;2024-03-22T09:20:33;4.33;;;4.03;;
6679;SDS011;3376;42.664;23.346;2024-03-22T09:23:59;4.60;;;4.30;;
6679;SDS011;3376;42.664;23.346;2024-03-22T09:27:25;2.80;;;2.63;;
6679;SDS011;3376;42.664;23.346;2024-03-22T09:30:51;3.50;;;3.30;;
6679;SDS011;3376;42.664;23.346;2024-03-22T09:34:19;3.60;;;3.47;;
6679;SDS011;3376;42.664;23.346;2024-03-22T09:37:46;5.07;;;4.80;;
6679;SDS011;3376;42.664;23.346;2024-03-22T09:41:13;3.90;;;3.60;;
6679;SDS011;3376;42.664;23.346;2024-03-22T09:44:43;3.97;;;3.70;;
6679;SDS011;3376;42.664;23.346;2024-03-22T09:48:12;3.10;;;2.90;;
6679;SDS011;3376;42.664;23.346;2024-03-22T09:51:42;4.20;;;3.13;;
6679;SDS011;3376;42.664;23.346;2024-03-22T09:55:09;3.53;;;3.33;;
6679;SDS011;3376;42.664;23.346;2024-03-22T09:58:34;3.70;;;3.40;;
6679;SDS011;3376;42.664;23.346;2024-03-22T10:02:00;8.37;;;3.40;;
6679;SDS011;3376;42.664;23.346;2024-03-22T10:05:30;3.50;;;3.30;;
6679;SDS011;3376;42.664;23.346;2024-03-22T10:08:57;3.23;;;3.00;;
6679;SDS011;3376;42.664;23.346;2024-03-22T10:12:24;3.17;;;3.07;;
6679;SDS011;3376;42.664;23.346;2024-03-22T10:15:50;4.37;;;3.87;;
6679;SDS011;3376;42.664;23.346;2024-03-22T10:19:18;3.47;;;3.23;;
6679;SDS011;3376;42.664;23.346;2024-03-22T10:22:47;3.57;;;3.37;;
6679;SDS011;3376;42.664;23.346;2024-03-22T10:26:15;3.50;;;3.30;;
6679;SDS011;3376;42.664;23.346;2024-03-22T10:29:43;3.07;;;2.97;;
6679;SDS011;3376;42.664;23.346;2024-03-22T10:33:10;3.70;;;3.40;;
6679;SDS011;3376;42.664;23.346;2024-03-22T10:36:36;3.83;;;3.63;;
6679;SDS011;3376;42.664;23.346;2024-03-22T10:40:03;3.47;;;3.27;;
6679;SDS011;3376;42.664;23.346;2024-03-22T10:43:30;3.53;;;3.33;;
6679;SDS011;3376;42.664;23.346;2024-03-22T10:46:56;3.53;;;3.13;;
6679;SDS011;3376;42.664;23.346;2024-03-22T10:50:29;3.13;;;3.03;;
6679;SDS011;3376;42.664;23.346;2024-03-22T10:53:54;3.17;;;2.93;;
6679;SDS011;3376;42.664;23.346;2024-03-22T10:57:22;2.97;;;2.73;;
6679;SDS011;3376;42.664;23.346;2024-03-22T11:00:52;3.93;;;3.73;;
6679;SDS011;3376;42.664;23.346;2024-03-22T11:04:19;2.47;;;2.37;;
6679;SDS011;3376;42.664;23.346;2024-03-22T11:07:44;4.10;;;3.43;;
6679;SDS011;3376;42.664;23.346;2024-03-22T11:11:11;3.70;;;3.40;;
6679;SDS011;3376;42.664;23.346;2024-03-22T11:14:37;3.40;;;3.17;;
6679;SDS011;3376;42.664;23.346;2024-03-22T11:18:04;3.30;;;3.10;;
6679;SDS011;3376;42.664;23.346;2024-03-22T11:21:32;3.30;;;2.97;;
6679;SDS011;3376;42.664;23.346;2024-03-22T11:24:58;2.83;;;2.73;;
6679;SDS011;3376;42.664;23.346;2024-03-22T11:28:23;3.27;;;2.73;;
6679;SDS011;3376;42.664;23.346;2024-03-22T11:31:51;3.07;;;2.87;;
6679;SDS011;3376;42.664;23.346;2024-03-22T11:35:18;3.17;;;3.07;;
6679;SDS011;3376;42.664;23.346;2024-03-22T11:38:43;3.27;;;3.17;;
6679;SDS011;3376;42.664;23.346;2024-03-22T11:42:09;3.03;;;2.93;;
6679;SDS011;3376;42.664;23.346;2024-03-22T11:45:35;4.07;;;3.77;;
6679;SDS011;3376;42.664;23.346;2024-03-22T11:49:02;5.63;;;3.53;;
6679;SDS011;3376;42.664;23.346;2024-03-22T11:52:31;2.83;;;2.73;;
6679;SDS011;3376;42.664;23.346;2024-03-22T11:55:57;3.00;;;2.90;;
6679;SDS011;3376;42.664;23.346;2024-03-22T11:59:22;4.00;;;2.90;;
6679;SDS011;3376;42.664;23.346;2024-03-22T12:02:48;3.20;;;3.00;;
6679;SDS011;3376;42.664;23.346;2024-03-22T12:06:15;3.00;;;2.90;;
6679;SDS011;3376;42.664;23.346;2024-03-22T12:09:42;2.87;;;2.67;;
6679;SDS011;3376;42.664;23.346;2024-03-22T12:13:07;3.63;;;3.43;;
6679;SDS011;3376;42.664;23.346;2024-03-22T12:16:33;3.73;;;3.53;;
6679;SDS011;3376;42.664;23.346;2024-03-22T12:20:01;3.23;;;3.03;;
6679;SDS011;3376;42.664;23.346;2024-03-22T12:23:27;2.77;;;2.67;;
6679;SDS011;3376;42.664;23.346;2024-03-22T12:26:57;3.20;;;3.00;;
6679;SDS011;3376;42.664;23.346;2024-03-22T12:30:23;3.93;;;3.73;;
6679;SDS011;3376;42.664;23.346;2024-03-22T12:33:49;6.03;;;3.40;;
6679;SDS011;3376;42.664;23.346;2024-03-22T12:37:15;3.00;;;2.80;;
6679;SDS011;3376;42.664;23.346;2024-03-22T12:40:41;3.83;;;2.90;;
6679;SDS011;3376;42.664;23.346;2024-03-22T12:44:08;4.50;;;2.63;;
6679;SDS011;3376;42.664;23.346;2024-03-22T12:47:34;2.50;;;2.30;;
6679;SDS011;3376;42.664;23.346;2024-03-22T12:51:01;2.80;;;2.70;;
6679;SDS011;3376;42.664;23.346;2024-03-22T12:54:31;3.50;;;3.33;;
6679;SDS011;3376;42.664;23.346;2024-03-22T12:57:56;3.00;;;2.80;;
6679;SDS011;3376;42.664;23.346;2024-03-22T13:01:24;3.20;;;3.00;;
6679;SDS011;3376;42.664;23.346;2024-03-22T13:04:51;2.73;;;2.63;;
6679;SDS011;3376;42.664;23.346;2024-03-22T13:08:17;3.03;;;2.83;;
6679;SDS011;3376;42.664;23.346;2024-03-22T13:11:46;3.83;;;3.17;;
6679;SDS011;3376;42.664;23.346;2024-03-22T13:15:13;4.77;;;4.20;;
6679;SDS011;3376;42.664;23.346;2024-03-22T13:18:41;2.97;;;2.87;;
6679;SDS011;3376;42.664;23.346;2024-03-22T13:22:07;2.70;;;2.57;;
6679;SDS011;3376;42.664;23.346;2024-03-22T13:25:34;3.13;;;3.03;;
6679;SDS011;3376;42.664;23.346;2024-03-22T13:28:59;3.20;;;2.70;;
6679;SDS011;3376;42.664;23.346;2024-03-22T13:32:24;2.70;;;2.60;;
6679;SDS011;3376;42.664;23.346;2024-03-22T13:35:50;3.10;;;2.90;;
6679;SDS011;3376;42.664;23.346;2024-03-22T13:39:16;3.03;;;2.93;;
6679;SDS011;3376;42.664;23.346;2024-03-22T13:42:42;4.70;;;2.53;;
6679;SDS011;3376;42.664;23.346;2024-03-22T13:46:09;3.07;;;2.87;;
6679;SDS011;3376;42.664;23.346;2024-03-22T13:49:35;2.70;;;2.50;;
6679;SDS011;3376;42.664;23.346;2024-03-22T13:53:03;3.70;;;3.50;;
6679;SDS011;3376;42.664;23.346;2024-03-22T13:56:28;3.80;;;3.60;;
6679;SDS011;3376;42.664;23.346;2024-03-22T13:59:53;3.60;;;3.23;;
6679;SDS011;3376;42.664;23.346;2024-03-22T14:03:18;9.90;;;3.40;;
6679;SDS011;3376;42.664;23.346;2024-03-22T14:06:47;7.83;;;3.27;;
6679;SDS011;3376;42.664;23.346;2024-03-22T14:10:15;3.20;;;3.00;;
6679;SDS011;3376;42.664;23.346;2024-03-22T14:13:41;3.10;;;2.90;;
6679;SDS011;3376;42.664;23.346;2024-03-22T14:17:07;3.30;;;3.10;;
6679;SDS011;3376;42.664;23.346;2024-03-22T14:20:33;3.50;;;3.20;;
6679;SDS011;3376;42.664;23.346;2024-03-22T14:23:58;2.83;;;2.63;;
6679;SDS011;3376;42.664;23.346;2024-03-22T14:27:25;3.33;;;3.13;;
6679;SDS011;3376;42.664;23.346;2024-03-22T14:30:51;2.73;;;2.63;;
6679;SDS011;3376;42.664;23.346;2024-03-22T14:34:16;3.53;;;3.33;;
6679;SDS011;3376;42.664;23.346;2024-03-22T14:37:42;4.30;;;2.70;;
6679;SDS011;3376;42.664;23.346;2024-03-22T14:41:07;3.23;;;2.80;;
6679;SDS011;3376;42.664;23.346;2024-03-22T14:44:35;3.03;;;2.90;;
6679;SDS011;3376;42.664;23.346;2024-03-22T14:48:01;4.53;;;2.90;;
6679;SDS011;3376;42.664;23.346;2024-03-22T14:51:28;2.77;;;2.57;;
6679;SDS011;3376;42.664;23.346;2024-03-22T14:54:56;2.93;;;2.50;;
6679;SDS011;3376;42.664;23.346;2024-03-22T14:58:24;3.63;;;3.33;;
6679;SDS011;3376;42.664;23.346;2024-03-22T15:01:51;3.57;;;3.37;;
6679;SDS011;3376;42.664;23.346;2024-03-22T15:05:17;4.13;;;3.20;;
6679;SDS011;3376;42.664;23.346;2024-03-22T15:08:43;3.13;;;3.03;;
6679;SDS011;3376;42.664;23.346;2024-03-22T15:12:08;3.43;;;3.23;;
6679;SDS011;3376;42.664;23.346;2024-03-22T15:15:35;3.00;;;2.90;;
6679;SDS011;3376;42.664;23.346;2024-03-22T15:19:04;3.00;;;2.73;;
6679;SDS011;3376;42.664;23.346;2024-03-22T15:22:30;2.97;;;2.87;;
6679;SDS011;3376;42.664;23.346;2024-03-22T15:25:58;2.97;;;2.80;;
6679;SDS011;3376;42.664;23.346;2024-03-22T15:29:23;3.70;;;3.50;;
6679;SDS011;3376;42.664;23.346;2024-03-22T15:32:48;3.73;;;3.43;;
6679;SDS011;3376;42.664;23.346;2024-03-22T15:36:16;3.10;;;3.00;;
6679;SDS011;3376;42.664;23.346;2024-03-22T15:39:41;4.50;;;3.70;;
6679;SDS011;3376;42.664;23.346;2024-03-22T15:43:07;5.63;;;2.93;;
6679;SDS011;3376;42.664;23.346;2024-03-22T15:46:33;3.60;;;3.30;;
6679;SDS011;3376;42.664;23.346;2024-03-22T15:49:59;4.50;;;3.33;;
6679;SDS011;3376;42.664;23.346;2024-03-22T15:53:28;3.83;;;3.60;;
6679;SDS011;3376;42.664;23.346;2024-03-22T15:56:52;2.87;;;2.77;;
6679;SDS011;3376;42.664;23.346;2024-03-22T16:00:20;3.53;;;2.97;;
6679;SDS011;3376;42.664;23.346;2024-03-22T16:03:45;4.40;;;3.60;;
6679;SDS011;3376;42.664;23.346;2024-03-22T16:07:12;3.80;;;3.10;;
6679;SDS011;3376;42.664;23.346;2024-03-22T16:10:39;3.53;;;2.93;;
6679;SDS011;3376;42.664;23.346;2024-03-22T16:14:05;2.90;;;2.80;;
6679;SDS011;3376;42.664;23.346;2024-03-22T16:17:31;3.23;;;2.77;;
6679;SDS011;3376;42.664;23.346;2024-03-22T16:20:58;3.20;;;3.00;;
6679;SDS011;3376;42.664;23.346;2024-03-22T16:24:24;3.53;;;2.87;;
6679;SDS011;3376;42.664;23.346;2024-03-22T16:27:51;3.93;;;3.60;;
6679;SDS011;3376;42.664;23.346;2024-03-22T16:31:17;8.97;;;8.00;;
6679;SDS011;3376;42.664;23.346;2024-03-22T16:34:42;6.57;;;5.97;;
6679;SDS011;3376;42.664;23.346;2024-03-22T16:38:09;4.50;;;4.17;;
6679;SDS011;3376;42.664;23.346;2024-03-22T16:41:35;4.00;;;3.60;;
6679;SDS011;3376;42.664;23.346;2024-03-22T16:45:11;3.27;;;3.00;;
6679;SDS011;3376;42.664;23.346;2024-03-22T16:48:38;2.50;;;2.40;;
6679;SDS011;3376;42.664;23.346;2024-03-22T16:52:02;3.90;;;3.70;;
6679;SDS011;3376;42.664;23.346;2024-03-22T16:55:27;7.63;;;3.60;;
6679;SDS011;3376;42.664;23.346;2024-03-22T16:58:52;3.20;;;3.00;;
6679;SDS011;3376;42.664;23.346;2024-03-22T17:02:20;4.00;;;3.50;;
6679;SDS011;3376;42.664;23.346;2024-03-22T17:05:47;4.83;;;4.43;;
6679;SDS011;3376;42.664;23.346;2024-03-22T17:09:12;3.07;;;2.90;;
6679;SDS011;3376;42.664;23.346;2024-03-22T17:12:38;3.97;;;3.60;;
6679;SDS011;3376;42.664;23.346;2024-03-22T17:16:03;3.90;;;3.70;;
6679;SDS011;3376;42.664;23.346;2024-03-22T17:19:30;8.47;;;4.80;;
6679;SDS011;3376;42.664;23.346;2024-03-22T17:22:56;4.00;;;3.80;;
6679;SDS011;3376;42.664;23.346;2024-03-22T17:26:22;5.30;;;4.67;;
6679;SDS011;3376;42.664;23.346;2024-03-22T17:29:47;5.77;;;4.40;;
6679;SDS011;3376;42.664;23.346;2024-03-22T17:33:14;5.43;;;4.93;;
6679;SDS011;3376;42.664;23.346;2024-03-22T17:36:40;5.10;;;4.70;;
6679;SDS011;3376;42.664;23.346;2024-03-22T17:40:07;4.63;;;4.27;;
6679;SDS011;3376;42.664;23.346;2024-03-22T17:43:31;8.87;;;5.47;;
6679;SDS011;3376;42.664;23.346;2024-03-22T17:46:57;4.83;;;4.53;;
6679;SDS011;3376;42.664;23.346;2024-03-22T17:50:22;5.30;;;4.87;;
6679;SDS011;3376;42.664;23.346;2024-03-22T17:53:51;4.70;;;4.30;;
6679;SDS011;3376;42.664;23.346;2024-03-22T17:57:16;8.07;;;4.97;;
6679;SDS011;3376;42.664;23.346;2024-03-22T18:00:42;8.13;;;6.63;;
6679;SDS011;3376;42.664;23.346;2024-03-22T18:04:06;13.63;;;6.40;;
6679;SDS011;3376;42.664;23.346;2024-03-22T18:07:32;7.57;;;6.83;;
6679;SDS011;3376;42.664;23.346;2024-03-22T18:11:02;10.73;;;7.17;;
6679;SDS011;3376;42.664;23.346;2024-03-22T18:14:27;9.47;;;7.13;;
6679;SDS011;3376;42.664;23.346;2024-03-22T18:17:52;12.47;;;7.33;;
6679;SDS011;3376;42.664;23.346;2024-03-22T18:21:18;7.33;;;6.73;;
6679;SDS011;3376;42.664;23.346;2024-03-22T18:24:43;12.00;;;6.27;;
6679;SDS011;3376;42.664;23.346;2024-03-22T18:28:11;11.13;;;6.23;;
6679;SDS011;3376;42.664;23.346;2024-03-22T18:31:35;5.50;;;5.00;;
6679;SDS011;3376;42.664;23.346;2024-03-22T18:35:03;10.20;;;6.17;;
6679;SDS011;3376;42.664;23.346;2024-03-22T18:38:29;11.13;;;5.90;;
6679;SDS011;3376;42.664;23.346;2024-03-22T18:41:55;10.63;;;7.10;;
6679;SDS011;3376;42.664;23.346;2024-03-22T18:45:22;9.87;;;6.43;;
6679;SDS011;3376;42.664;23.346;2024-03-22T18:48:48;7.50;;;6.53;;
6679;SDS011;3376;42.664;23.346;2024-03-22T18:52:12;7.93;;;5.87;;
6679;SDS011;3376;42.664;23.346;2024-03-22T18:55:39;7.07;;;4.97;;
6679;SDS011;3376;42.664;23.346;2024-03-22T18:59:04;8.10;;;5.27;;
6679;SDS011;3376;42.664;23.346;2024-03-22T19:02:33;10.00;;;7.47;;
6679;SDS011;3376;42.664;23.346;2024-03-22T19:05:59;19.90;;;6.17;;
6679;SDS011;3376;42.664;23.346;2024-03-22T19:09:27;11.60;;;6.00;;
6679;SDS011;3376;42.664;23.346;2024-03-22T19:12:53;10.73;;;6.13;;
6679;SDS011;3376;42.664;23.346;2024-03-22T19:16:19;16.17;;;6.77;;
6679;SDS011;3376;42.664;23.346;2024-03-22T19:19:46;13.50;;;6.97;;
6679;SDS011;3376;42.664;23.346;2024-03-22T19:23:12;9.73;;;7.07;;
6679;SDS011;3376;42.664;23.346;2024-03-22T19:26:38;18.43;;;8.30;;
6679;SDS011;3376;42.664;23.346;2024-03-22T19:30:06;8.07;;;7.03;;
6679;SDS011;3376;42.664;23.346;2024-03-22T19:33:32;16.87;;;9.53;;
6679;SDS011;3376;42.664;23.346;2024-03-22T19:37:01;15.03;;;8.93;;
6679;SDS011;3376;42.664;23.346;2024-03-22T19:40:26;25.97;;;9.77;;
6679;SDS011;3376;42.664;23.346;2024-03-22T19:43:52;12.97;;;9.60;;
6679;SDS011;3376;42.664;23.346;2024-03-22T19:47:18;11.57;;;10.00;;
6679;SDS011;3376;42.664;23.346;2024-03-22T19:50:44;12.77;;;9.67;;
6679;SDS011;3376;42.664;23.346;2024-03-22T19:54:10;10.20;;;9.30;;
6679;SDS011;3376;42.664;23.346;2024-03-22T19:57:36;10.47;;;8.43;;
6679;SDS011;3376;42.664;23.346;2024-03-22T20:01:01;8.30;;;7.57;;
6679;SDS011;3376;42.664;23.346;2024-03-22T20:04:28;11.27;;;7.97;;
6679;SDS011;3376;42.664;23.346;2024-03-22T20:07:53;10.53;;;8.90;;
6679;SDS011;3376;42.664;23.346;2024-03-22T20:11:21;8.83;;;6.57;;
6679;SDS011;3376;42.664;23.346;2024-03-22T20:14:50;7.53;;;6.87;;
6679;SDS011;3376;42.664;23.346;2024-03-22T20:18:14;6.87;;;6.27;;
6679;SDS011;3376;42.664;23.346;2024-03-22T20:21:40;7.23;;;5.23;;
6679;SDS011;3376;42.664;23.346;2024-03-22T20:25:05;9.33;;;5.63;;
6679;SDS011;3376;42.664;23.346;2024-03-22T20:28:33;6.73;;;5.80;;
6679;SDS011;3376;42.664;23.346;2024-03-22T20:31:57;6.07;;;5.47;;
6679;SDS011;3376;42.664;23.346;2024-03-22T20:35:23;6.00;;;5.57;;
